Time;durP1;ratioP1;P1;durP2;ratioP2;P2;SDS_P1;SDS_P2;PMS_P1;PMS_P2;Temp;Humidity;BMP_temperature;BMP_pressure;BME280_temperature;BME280_humidity;BME280_pressure;Samples;Min_cycle;Max_cycle;Signal;HPM_P1;HPM_P2
2021/09/05 02:19:34;;;;;;;;;;;;;;;;;;;;;
2021/09/05 02:22:54;;;;;;;24.95;15.13;;;13.10;72.40;;;;;;4801852;29;20042;-86
2021/09/05 02:25:28;;;;;;;20.95;15.38;;;13.10;72.60;;;;;;4777253;29;20066;-85
2021/09/05 02:28:21;;;;;;;21.42;17.00;;;13.10;72.50;;;;;;4776751;29;20088;-86
2021/09/05 02:30:56;;;;;;;18.95;14.55;;;13.00;72.50;;;;;;4791120;29;20042;-86
2021/09/05 02:33:54;;;;;;;18.00;12.82;;;13.00;72.60;;;;;;4791265;29;20034;-86
2021/09/05 02:44:03;;;;;;;;;;;;;;;;;;;;;
2021/09/05 05:30:44;;;;;;;29.15;19.55;;;12.20;75.80;;;;;;5551441;24;20081;-88
2021/09/05 05:33:09;;;;;;;25.75;19.20;;;12.20;75.80;;;;;;4795219;29;20066;-88
2021/09/05 05:35:35;;;;;;;30.42;20.88;;;12.30;75.90;;;;;;4810324;29;20483;-88
2021/09/05 05:38:01;;;;;;;30.35;21.20;;;12.30;75.90;;;;;;4810723;29;20375;-89
2021/09/05 05:40:26;;;;;;;33.20;21.92;;;12.40;75.90;;;;;;4809655;29;20057;-88
2021/09/05 05:42:53;;;;;;;32.72;22.83;;;12.40;75.90;;;;;;4826662;29;20106;-88
2021/09/05 05:45:18;;;;;;;33.45;23.60;;;12.40;75.90;;;;;;4809773;29;20027;-88
2021/09/05 05:47:49;;;;;;;32.85;22.92;;;12.50;76.10;;;;;;4810247;29;20034;-87
2021/09/05 05:50:15;;;;;;;33.60;23.77;;;12.60;76.20;;;;;;4810022;29;20103;-87
2021/09/05 05:52:43;;;;;;;33.72;23.33;;;12.60;76.10;;;;;;4794968;29;20539;-88
2021/09/05 05:55:10;;;;;;;35.08;24.63;;;12.70;76.20;;;;;;4794583;29;20133;-87
2021/09/05 05:57:35;;;;;;;35.60;22.65;;;12.70;76.10;;;;;;4809887;29;20041;-88
2021/09/05 06:00:05;;;;;;;30.15;21.73;;;12.70;76.10;;;;;;4809731;29;20046;-87
2021/09/05 06:02:36;;;;;;;30.73;20.73;;;12.80;76.40;;;;;;4809592;29;20041;-84
2021/09/05 06:05:02;;;;;;;29.70;21.63;;;12.90;76.50;;;;;;4794467;29;20031;-84
2021/09/05 06:07:40;;;;;;;34.20;23.27;;;12.90;76.30;;;;;;4809405;29;20468;-84
2021/09/05 06:10:11;;;;;;;33.20;23.50;;;13.00;76.30;;;;;;4809380;29;20391;-85
2021/09/05 06:12:37;;;;;;;33.05;23.38;;;13.00;76.40;;;;;;4809703;29;20067;-84
2021/09/05 06:15:41;;;;;;;40.03;26.58;;;13.10;76.40;;;;;;4809457;29;20026;-84
2021/09/05 06:18:07;;;;;;;34.67;24.80;;;13.20;76.50;;;;;;4809318;29;20030;-85
2021/09/05 06:21:08;;;;;;;;;;;;;;;;;;;;;
2021/09/05 06:23:49;;;;;;;32.47;22.20;;;13.30;76.60;;;;;;4821762;29;20479;-85
2021/09/05 06:26:17;;;;;;;35.42;24.73;;;13.40;76.80;;;;;;4809240;29;20471;-84
2021/09/05 06:28:46;;;;;;;40.17;25.90;;;13.50;76.60;;;;;;4809216;29;20033;-84
2021/09/05 06:31:14;;;;;;;36.45;24.77;;;13.50;76.70;;;;;;4808834;29;20054;-84
2021/09/05 06:33:46;;;;;;;31.67;23.83;;;13.60;77.40;;;;;;4809244;29;20040;-86
2021/09/05 06:43:38;;;;;;;34.30;23.08;;;14.00;77.20;;;;;;4741009;30;20104;-88
2021/09/05 06:46:04;;;;;;;31.73;23.80;;;14.10;76.90;;;;;;4752739;30;20036;-90
2021/09/05 06:48:31;;;;;;;33.25;25.17;;;14.20;77.10;;;;;;4738130;30;20043;-90
2021/09/05 06:50:58;;;;;;;32.20;23.48;;;14.20;77.10;;;;;;4738244;30;20040;-89
2021/09/05 06:53:24;;;;;;;33.35;23.42;;;14.30;77.10;;;;;;4764950;29;20129;-87
2021/09/05 06:55:50;;;;;;;30.75;21.33;;;14.40;77.40;;;;;;4809411;29;20446;-88
2021/09/05 06:58:19;;;;;;;24.50;18.13;;;14.50;77.50;;;;;;4794546;29;20438;-90
2021/09/05 07:00:46;;;;;;;20.35;15.25;;;14.60;77.70;;;;;;4808938;29;20149;-88
2021/09/05 07:03:12;;;;;;;18.17;13.95;;;14.80;77.90;;;;;;4809030;29;20031;-89
2021/09/05 07:05:38;;;;;;;19.30;14.07;;;14.90;77.90;;;;;;4809210;29;20463;-88
2021/09/05 07:08:07;;;;;;;19.02;13.20;;;15.00;77.80;;;;;;4779116;29;20069;-88
2021/09/05 07:10:33;;;;;;;17.27;13.45;;;15.10;77.90;;;;;;4808861;29;20038;-91
2021/09/05 07:13:03;;;;;;;17.30;13.35;;;15.20;77.80;;;;;;4809983;29;20026;-91
2021/09/05 07:15:29;;;;;;;19.23;13.73;;;15.30;77.60;;;;;;4810793;29;20034;-93
2021/09/05 07:17:57;;;;;;;18.23;13.00;;;15.40;77.70;;;;;;4794858;29;20027;-92
2021/09/05 07:20:23;;;;;;;15.95;12.45;;;15.50;77.80;;;;;;4809415;29;20042;-88
2021/09/05 07:22:52;;;;;;;16.17;12.43;;;15.60;77.60;;;;;;4802622;29;20095;-90
2021/09/05 07:25:21;;;;;;;15.18;12.13;;;15.70;77.60;;;;;;4808749;29;20027;-91
2021/09/05 07:27:50;;;;;;;15.68;11.90;;;15.80;77.70;;;;;;4809624;29;20107;-94
2021/09/05 07:30:16;;;;;;;14.00;11.15;;;15.80;77.60;;;;;;4801103;29;20034;-95
2021/09/05 07:32:50;;;;;;;14.13;11.07;;;16.00;77.90;;;;;;4820443;29;20049;-96
2021/09/05 07:35:16;;;;;;;15.30;11.75;;;16.20;78.10;;;;;;4815038;29;20395;-85
2021/09/05 07:37:46;;;;;;;14.25;11.48;;;16.30;78.00;;;;;;4807973;29;20033;-87
2021/09/05 07:40:21;;;;;;;16.05;11.40;;;16.40;77.90;;;;;;4826734;29;20069;-95
2021/09/05 07:43:08;;;;;;;14.20;11.00;;;16.60;77.70;;;;;;4842351;29;20057;-96
2021/09/05 07:45:44;;;;;;;13.93;10.20;;;16.60;77.60;;;;;;4809517;29;20095;-95
2021/09/05 07:48:32;;;;;;;12.88;9.77;;;16.80;77.60;;;;;;4818058;29;20303;-82
2021/09/05 07:51:24;;;;;;;13.15;9.80;;;17.00;77.70;;;;;;4806743;29;20095;-91
2021/09/05 07:53:53;;;;;;;13.73;9.70;;;17.00;77.60;;;;;;4813453;29;20031;-88
2021/09/05 07:56:21;;;;;;;15.35;10.55;;;17.20;77.30;;;;;;4813859;29;20502;-92
2021/09/05 07:58:48;;;;;;;12.48;9.30;;;17.20;77.30;;;;;;4799120;29;20038;-91
2021/09/05 08:01:15;;;;;;;12.77;9.10;;;17.30;77.20;;;;;;4812308;29;20046;-89
2021/09/05 08:03:41;;;;;;;12.57;9.27;;;17.40;77.50;;;;;;4829267;29;20387;-89
2021/09/05 08:06:07;;;;;;;12.82;8.63;;;17.50;77.50;;;;;;4813152;29;20038;-89
2021/09/05 08:08:36;;;;;;;12.65;9.13;;;17.60;77.40;;;;;;4829435;29;20030;-89
2021/09/05 08:11:04;;;;;;;11.13;8.35;;;17.70;77.50;;;;;;4813118;29;20030;-90
2021/09/05 08:13:32;;;;;;;12.05;8.32;;;17.80;77.40;;;;;;4813373;29;20149;-91
2021/09/05 08:16:02;;;;;;;10.82;7.43;;;18.00;77.40;;;;;;4813259;29;20165;-90
2021/09/05 08:18:33;;;;;;;12.40;8.35;;;18.10;77.60;;;;;;4813340;29;20034;-90
2021/09/05 08:21:00;;;;;;;11.82;7.60;;;18.20;77.00;;;;;;4829602;29;20067;-91
2021/09/05 08:23:27;;;;;;;11.15;7.22;;;18.40;77.20;;;;;;4802003;29;20030;-90
2021/09/05 08:25:55;;;;;;;11.25;7.72;;;18.50;77.30;;;;;;4819060;29;20030;-92
2021/09/05 08:28:21;;;;;;;11.65;7.55;;;18.60;76.90;;;;;;4819187;29;20029;-92
2021/09/05 08:30:48;;;;;;;10.45;7.20;;;18.80;76.60;;;;;;4807500;29;20074;-92
2021/09/05 08:33:17;;;;;;;10.43;7.00;;;18.90;76.20;;;;;;4795195;29;20067;-88
2021/09/05 08:35:45;;;;;;;10.73;7.20;;;18.90;76.10;;;;;;4793849;29;20138;-91
2021/09/05 08:38:12;;;;;;;11.80;7.07;;;19.00;76.20;;;;;;4794557;29;20023;-87
2021/09/05 08:40:45;;;;;;;10.88;6.40;;;19.20;76.20;;;;;;4809557;29;20047;-88
2021/09/05 08:43:12;;;;;;;10.80;6.40;;;19.30;75.80;;;;;;4793788;29;20026;-89
2021/09/05 08:45:38;;;;;;;10.23;6.47;;;19.50;76.00;;;;;;4796235;29;20050;-89
2021/09/05 08:48:05;;;;;;;9.90;6.43;;;19.60;75.80;;;;;;4776177;30;20031;-87
2021/09/05 08:50:32;;;;;;;10.77;6.28;;;19.70;75.30;;;;;;4798134;29;20104;-87
2021/09/05 08:53:01;;;;;;;10.05;5.78;;;19.80;75.00;;;;;;4794698;29;20484;-88
2021/09/05 08:55:30;;;;;;;10.10;6.40;;;20.00;75.10;;;;;;4808822;29;20042;-87
2021/09/05 08:57:59;;;;;;;11.82;5.93;;;20.10;75.50;;;;;;4809795;29;20101;-90
2021/09/05 09:00:25;;;;;;;9.40;5.55;;;20.30;75.00;;;;;;4806988;29;20042;-89
2021/09/05 09:02:58;;;;;;;11.13;6.18;;;20.40;74.30;;;;;;4794611;29;20103;-88
2021/09/05 09:05:38;;;;;;;10.00;5.63;;;20.50;73.90;;;;;;4793853;29;20047;-88
2021/09/05 09:08:13;;;;;;;10.05;5.65;;;20.70;74.20;;;;;;4793915;29;20376;-87
2021/09/05 09:10:59;;;;;;;8.88;5.57;;;20.90;74.00;;;;;;4792971;29;20043;-88
2021/09/05 09:13:26;;;;;;;10.55;5.38;;;21.00;73.50;;;;;;4793514;29;20034;-87
2021/09/05 09:15:53;;;;;;;9.50;5.50;;;21.10;73.50;;;;;;4792751;29;20059;-86
2021/09/05 09:18:28;;;;;;;10.02;5.82;;;21.20;73.30;;;;;;4792825;29;20464;-87
2021/09/05 09:20:59;;;;;;;10.18;6.43;;;21.40;73.10;;;;;;4793042;29;20104;-89
2021/09/05 09:23:35;;;;;;;10.25;5.95;;;21.50;73.00;;;;;;4780166;29;20399;-91
2021/09/05 09:26:04;;;;;;;10.05;5.20;;;21.70;72.80;;;;;;4794628;29;20026;-92
2021/09/05 09:28:35;;;;;;;9.27;5.10;;;21.90;73.20;;;;;;4792984;29;20051;-88
2021/09/05 09:31:18;;;;;;;11.18;4.78;;;22.10;72.60;;;;;;4793692;29;20047;-90
2021/09/05 09:33:56;;;;;;;10.32;5.05;;;22.20;72.00;;;;;;4793578;29;20126;-89
2021/09/05 09:36:25;;;;;;;11.25;4.82;;;22.40;72.30;;;;;;4793550;29;20023;-89
2021/09/05 09:39:03;;;;;;;9.30;4.70;;;22.50;71.50;;;;;;4792446;29;20038;-87
2021/09/05 09:41:40;;;;;;;8.93;4.43;;;22.70;71.20;;;;;;4792617;29;20047;-87
2021/09/05 09:44:08;;;;;;;8.73;4.40;;;22.90;71.20;;;;;;4792102;29;20476;-85
2021/09/05 09:46:39;;;;;;;7.78;4.00;;;23.10;71.00;;;;;;4801796;29;20130;-85
2021/09/05 09:54:06;;;;;;;;;;;;;;;;;;;;;
2021/09/05 10:03:01;;;;;;;9.00;4.37;;;24.40;68.90;;;;;;4651580;30;20049;-85
2021/09/05 10:05:28;;;;;;;7.47;4.20;;;24.60;68.40;;;;;;4751872;30;20350;-87
2021/09/05 10:07:57;;;;;;;9.00;4.50;;;24.80;67.90;;;;;;4737122;30;20552;-87
2021/09/05 10:10:24;;;;;;;10.65;4.20;;;25.00;67.80;;;;;;4779989;29;20066;-87
2021/09/05 10:12:55;;;;;;;7.95;4.00;;;25.20;67.30;;;;;;4790825;29;20038;-84
2021/09/05 10:15:30;;;;;;;7.97;4.20;;;25.40;66.90;;;;;;4789417;30;20035;-84
2021/09/05 10:17:57;;;;;;;13.90;4.18;;;25.70;66.00;;;;;;4789679;30;20062;-84
2021/09/05 10:20:25;;;;;;;8.82;3.53;;;25.90;66.10;;;;;;4789246;30;20485;-84
2021/09/05 10:22:53;;;;;;;8.65;3.70;;;26.20;66.10;;;;;;4789321;30;20503;-84
2021/09/05 10:25:25;;;;;;;9.10;3.83;;;26.50;65.50;;;;;;4773524;30;20037;-84
2021/09/05 10:27:54;;;;;;;8.70;3.63;;;26.80;65.50;;;;;;4771322;29;20050;-82
2021/09/05 10:30:21;;;;;;;7.72;3.45;;;27.20;65.10;;;;;;4807693;29;20117;-83
2021/09/05 10:32:51;;;;;;;7.28;3.83;;;27.60;64.70;;;;;;4807236;29;20046;-83
2021/09/05 10:35:33;;;;;;;6.38;3.22;;;28.00;64.50;;;;;;4822770;29;20243;-84
2021/09/05 10:38:08;;;;;;;6.47;3.30;;;28.40;63.80;;;;;;4808119;29;20030;-83
2021/09/05 10:40:43;;;;;;;6.68;3.42;;;28.90;63.20;;;;;;4808553;29;20433;-83
2021/09/05 10:43:09;;;;;;;8.52;3.50;;;29.50;62.80;;;;;;4818912;29;20517;-84
2021/09/05 10:45:37;;;;;;;6.40;3.13;;;30.00;62.50;;;;;;4808996;29;20070;-85
2021/09/05 10:48:23;;;;;;;6.25;3.08;;;30.50;61.30;;;;;;4825790;29;20026;-85
2021/09/05 10:51:03;;;;;;;6.50;3.40;;;31.00;60.20;;;;;;4825230;29;20049;-84
2021/09/05 10:53:36;;;;;;;7.75;3.28;;;31.70;59.10;;;;;;4795570;29;20475;-85
2021/09/05 10:56:09;;;;;;;6.57;3.25;;;32.30;58.10;;;;;;4808819;29;20046;-84
2021/09/05 10:59:07;;;;;;;5.95;3.08;;;32.80;57.10;;;;;;4809728;29;20380;-83
2021/09/05 11:01:36;;;;;;;6.40;3.40;;;33.40;56.10;;;;;;4807896;29;20601;-85
2021/09/05 11:04:17;;;;;;;6.18;3.22;;;34.00;54.80;;;;;;4808774;29;20124;-83
2021/09/05 11:06:47;;;;;;;5.97;3.03;;;34.50;53.20;;;;;;4808667;29;20099;-82
2021/09/05 11:09:19;;;;;;;7.05;3.30;;;34.80;51.90;;;;;;4825083;29;20098;-83
2021/09/05 11:12:03;;;;;;;5.80;3.10;;;35.30;50.80;;;;;;4808688;29;20033;-83
2021/09/05 11:14:35;;;;;;;5.13;2.75;;;35.70;50.10;;;;;;4808373;29;20038;-83
2021/09/05 11:17:11;;;;;;;6.82;3.30;;;36.10;49.30;;;;;;4808305;29;20086;-83
2021/09/05 11:19:52;;;;;;;7.80;3.42;;;36.30;46.40;;;;;;4807968;29;20035;-83
2021/09/05 11:22:32;;;;;;;5.32;3.00;;;36.00;46.40;;;;;;4808520;29;20042;-83
2021/09/05 11:25:18;;;;;;;5.90;2.83;;;35.90;45.20;;;;;;4808637;29;20387;-85
2021/09/05 11:27:57;;;;;;;8.15;3.25;;;35.40;43.70;;;;;;4824505;29;20026;-83
2021/09/05 11:30:24;;;;;;;6.00;3.05;;;35.50;45.40;;;;;;4823002;29;20419;-83
2021/09/05 11:33:01;;;;;;;6.03;3.15;;;36.10;45.20;;;;;;4823726;29;20056;-85
2021/09/05 11:35:27;;;;;;;6.28;3.10;;;36.90;44.40;;;;;;4807848;29;20548;-83
2021/09/05 11:37:55;;;;;;;5.55;3.10;;;37.70;43.40;;;;;;4812618;29;20039;-84
2021/09/05 11:40:21;;;;;;;5.50;3.03;;;37.70;41.00;;;;;;4795409;29;20452;-85
2021/09/05 11:42:49;;;;;;;5.97;2.75;;;38.20;41.70;;;;;;4789549;29;20038;-85
2021/09/05 11:45:16;;;;;;;5.07;3.13;;;38.40;38.80;;;;;;4811479;29;20035;-84
2021/09/05 11:47:43;;;;;;;5.90;2.97;;;38.10;38.10;;;;;;4792257;29;20119;-83
2021/09/05 11:50:11;;;;;;;6.53;3.00;;;38.30;38.00;;;;;;4829424;29;20038;-85
2021/09/05 11:52:40;;;;;;;5.55;2.80;;;38.70;38.10;;;;;;4794622;29;20038;-85
2021/09/05 11:55:15;;;;;;;5.60;2.90;;;39.10;36.30;;;;;;4806777;29;20023;-85
2021/09/05 11:58:01;;;;;;;6.13;3.28;;;38.80;34.90;;;;;;4790210;29;20027;-85
2021/09/05 12:00:34;;;;;;;7.45;3.22;;;38.70;35.10;;;;;;4791035;29;20050;-86
2021/09/05 12:03:02;;;;;;;6.40;2.80;;;39.10;35.20;;;;;;4806600;29;20179;-85
2021/09/05 12:05:29;;;;;;;4.70;2.78;;;39.40;34.40;;;;;;4805488;29;20027;-85
2021/09/05 12:07:55;;;;;;;5.85;3.20;;;39.80;34.30;;;;;;4789992;29;20034;-85
2021/09/05 12:10:46;;;;;;;5.28;2.90;;;40.30;33.80;;;;;;4806285;29;20026;-85
2021/09/05 13:19:30;;;;;;;6.18;2.80;;;42.60;26.60;;;;;;4790561;30;20042;-85
2021/09/05 13:22:01;;;;;;;5.65;2.80;;;42.10;25.60;;;;;;4730338;30;20051;-83
2021/09/05 13:24:30;;;;;;;7.35;3.00;;;40.90;25.30;;;;;;4774913;30;20038;-84
2021/09/05 13:27:02;;;;;;;5.22;2.85;;;39.90;25.70;;;;;;4775249;30;20468;-83
2021/09/05 13:40:28;;;;;;;;;;;;;;;;;;;;;
2021/09/05 13:43:21;;;;;;;7.00;3.35;;;39.40;27.80;;;;;;4723167;30;20498;-84
2021/09/05 13:46:51;;;;;;;5.50;3.17;;;40.80;28.60;;;;;;4792104;29;20038;-83
2021/09/05 13:49:19;;;;;;;6.85;3.30;;;42.30;27.10;;;;;;4772427;29;20043;-80
2021/09/05 13:51:50;;;;;;;5.15;2.92;;;41.70;26.70;;;;;;4791600;29;20062;-82
2021/09/05 13:54:16;;;;;;;5.22;2.85;;;42.90;27.90;;;;;;4777292;29;20130;-82
2021/09/05 13:56:45;;;;;;;4.43;2.72;;;44.40;27.80;;;;;;4807831;29;20127;-82
2021/09/05 15:20:16;;;;;;;6.13;2.65;;;45.70;21.60;;;;;;4630739;31;20106;-84
2021/09/05 15:22:42;;;;;;;5.72;2.88;;;43.70;21.90;;;;;;4632871;30;20095;-84
2021/09/05 15:25:14;;;;;;;4.75;2.72;;;42.00;22.10;;;;;;4708294;30;20044;-84
2021/09/05 15:27:48;;;;;;;5.63;2.90;;;40.70;22.60;;;;;;4752867;29;20420;-84
2021/09/05 15:30:29;;;;;;;5.32;2.97;;;39.50;23.00;;;;;;4790930;29;20071;-85
2021/09/05 15:33:26;;;;;;;6.35;3.30;;;38.60;23.50;;;;;;4790789;29;20035;-84
2021/09/05 15:36:18;;;;;;;6.40;3.25;;;37.80;23.70;;;;;;4806718;29;20517;-84
2021/09/05 15:54:07;;;;;;;6.90;3.47;;;34.60;25.90;;;;;;4768730;30;20077;-85
2021/09/05 15:56:37;;;;;;;7.18;3.50;;;34.30;26.20;;;;;;4825271;29;20033;-90
2021/09/05 16:16:48;;;;;;;6.25;3.00;;;36.20;29.00;;;;;;4824352;29;20061;-91
2021/09/05 16:26:27;;;;;;;5.82;3.10;;;37.20;28.30;;;;;;4835373;29;20073;-90
2021/09/05 16:29:00;;;;;;;5.43;3.00;;;37.70;28.30;;;;;;4812241;29;20042;-85
2021/09/05 16:31:31;;;;;;;6.38;3.28;;;37.90;28.00;;;;;;4812136;29;20372;-85
2021/09/05 16:33:59;;;;;;;6.43;3.17;;;38.20;28.10;;;;;;4812188;29;20073;-84
2021/09/05 16:41:43;;;;;;;7.47;3.20;;;38.40;27.80;;;;;;4826918;29;20063;-85
2021/09/05 16:44:17;;;;;;;6.95;3.10;;;38.40;27.60;;;;;;4812731;29;20117;-86
2021/09/05 16:46:49;;;;;;;6.75;3.17;;;38.40;27.70;;;;;;4814412;29;20031;-86
2021/09/05 16:49:16;;;;;;;6.90;3.38;;;38.20;27.50;;;;;;4812927;29;20034;-86
2021/09/05 16:51:42;;;;;;;6.55;3.20;;;38.00;27.40;;;;;;4813397;29;20022;-86
2021/09/05 16:54:10;;;;;;;8.48;4.10;;;37.70;27.40;;;;;;4814635;29;20448;-87
2021/09/05 16:56:37;;;;;;;6.93;3.38;;;37.30;27.40;;;;;;4828185;29;20031;-86
2021/09/05 16:59:06;;;;;;;7.28;3.55;;;37.00;27.50;;;;;;4814696;29;20036;-87
2021/09/05 17:01:32;;;;;;;7.38;3.75;;;36.70;27.60;;;;;;4828216;29;20065;-86
2021/09/05 17:03:59;;;;;;;7.47;3.45;;;36.30;27.70;;;;;;4819903;29;20031;-87
2021/09/05 17:06:25;;;;;;;6.72;3.28;;;35.90;27.80;;;;;;4812432;29;20026;-87
2021/09/05 17:08:51;;;;;;;6.45;3.40;;;35.60;28.20;;;;;;4813633;29;20082;-88
2021/09/05 17:11:19;;;;;;;7.00;3.53;;;35.20;28.00;;;;;;4824401;29;20031;-84
2021/09/05 17:13:45;;;;;;;10.85;3.55;;;34.50;28.00;;;;;;4818094;29;20038;-84
2021/09/05 17:16:14;;;;;;;6.95;3.53;;;33.80;28.20;;;;;;4817790;29;20030;-84
2021/09/05 17:18:40;;;;;;;7.65;3.80;;;33.10;28.70;;;;;;4831931;29;20039;-83
2021/09/05 17:21:07;;;;;;;6.65;3.60;;;32.50;29.10;;;;;;4815399;29;20042;-83
2021/09/05 17:23:37;;;;;;;7.40;3.53;;;31.90;29.50;;;;;;4815049;29;20804;-83
2021/09/05 17:26:05;;;;;;;7.72;3.53;;;31.30;29.90;;;;;;4779976;29;20059;-83
2021/09/05 17:28:32;;;;;;;7.25;3.50;;;30.80;30.40;;;;;;4796497;29;20027;-83
2021/09/05 17:30:59;;;;;;;7.70;3.75;;;30.40;30.90;;;;;;4795472;29;20047;-83
2021/09/05 17:33:24;;;;;;;6.50;3.70;;;29.90;31.30;;;;;;4809336;29;20019;-82
2021/09/05 17:35:51;;;;;;;7.75;3.75;;;29.50;31.80;;;;;;4810341;29;20031;-89
2021/09/05 17:38:21;;;;;;;8.50;3.70;;;29.20;32.50;;;;;;4798643;29;20187;-93
2021/09/05 17:40:59;;;;;;;7.50;3.70;;;28.80;33.00;;;;;;4798771;29;20106;-93
2021/09/05 17:43:27;;;;;;;8.93;4.07;;;28.50;33.60;;;;;;4799203;29;20027;-92
2021/09/05 17:45:56;;;;;;;8.80;4.10;;;28.10;33.90;;;;;;4805971;29;20026;-94
2021/09/05 17:48:44;;;;;;;7.93;4.10;;;27.70;34.30;;;;;;4802458;29;20026;-92
2021/09/05 17:51:13;;;;;;;8.00;4.30;;;27.60;34.90;;;;;;4787129;29;20492;-93
2021/09/05 17:53:41;;;;;;;7.47;3.72;;;27.30;35.40;;;;;;4773538;30;20024;-92
2021/09/05 17:56:07;;;;;;;7.85;3.97;;;27.00;35.70;;;;;;4798920;29;20035;-93
2021/09/05 17:58:38;;;;;;;7.93;3.83;;;26.70;36.00;;;;;;4786219;29;20095;-93
2021/09/05 18:01:06;;;;;;;8.43;4.68;;;26.50;36.70;;;;;;4812871;29;20043;-94
2021/09/05 18:03:35;;;;;;;9.05;4.55;;;26.30;37.20;;;;;;4794956;29;20098;-92
2021/09/05 18:06:06;;;;;;;8.60;4.53;;;26.10;37.60;;;;;;4810536;29;20034;-93
2021/09/05 18:08:33;;;;;;;8.90;4.40;;;25.90;37.90;;;;;;4808228;29;20501;-92
2021/09/05 18:10:59;;;;;;;10.38;4.70;;;25.70;38.20;;;;;;4789039;29;20031;-92
2021/09/05 18:13:25;;;;;;;8.13;4.30;;;25.40;38.60;;;;;;4808570;29;20075;-92
2021/09/05 18:15:51;;;;;;;9.43;4.78;;;25.20;39.00;;;;;;4787036;29;20030;-92
2021/09/05 18:18:19;;;;;;;9.15;4.82;;;25.10;39.50;;;;;;4801370;29;20484;-93
2021/09/05 18:20:44;;;;;;;8.43;4.30;;;24.90;40.00;;;;;;4799688;29;20114;-91
2021/09/05 18:23:10;;;;;;;8.95;4.50;;;24.70;40.30;;;;;;4800112;29;20473;-91
2021/09/05 18:25:36;;;;;;;8.00;4.30;;;24.50;40.60;;;;;;4789371;29;20415;-92
2021/09/05 18:28:02;;;;;;;9.57;4.53;;;24.40;41.00;;;;;;4801432;29;20043;-90
2021/09/05 18:30:28;;;;;;;9.05;4.57;;;24.20;41.40;;;;;;4797116;29;20031;-91
2021/09/05 18:33:00;;;;;;;9.57;4.50;;;24.10;41.80;;;;;;4813539;29;20053;-89
2021/09/05 18:35:29;;;;;;;10.27;5.15;;;23.90;42.30;;;;;;4811872;29;20082;-91
2021/09/05 18:37:55;;;;;;;9.25;4.90;;;23.80;42.60;;;;;;4829079;29;20060;-91
2021/09/05 18:40:22;;;;;;;9.40;4.82;;;23.60;42.90;;;;;;4815202;29;20038;-91
2021/09/05 18:42:54;;;;;;;8.95;4.75;;;23.50;43.10;;;;;;4825689;29;20435;-91
2021/09/05 18:45:24;;;;;;;10.10;4.75;;;23.40;43.70;;;;;;4802370;29;20041;-90
2021/09/05 18:47:50;;;;;;;12.63;5.30;;;23.20;44.10;;;;;;4796683;29;20459;-91
2021/09/05 18:50:23;;;;;;;8.70;4.93;;;23.10;44.80;;;;;;4797207;29;20035;-89
2021/09/05 18:52:54;;;;;;;9.65;4.95;;;23.00;44.50;;;;;;4799517;29;20026;-90
2021/09/05 18:55:23;;;;;;;10.23;5.57;;;22.90;44.80;;;;;;4813739;29;20062;-89
2021/09/05 18:57:50;;;;;;;9.55;5.07;;;22.70;45.00;;;;;;4828847;29;20391;-90
2021/09/05 19:00:16;;;;;;;10.18;4.95;;;22.60;45.30;;;;;;4815973;29;20053;-91
2021/09/05 19:02:42;;;;;;;10.07;5.38;;;22.40;45.60;;;;;;4798985;29;20098;-91
2021/09/05 19:05:09;;;;;;;8.63;4.53;;;22.30;45.90;;;;;;4795399;29;20043;-90
2021/09/05 19:07:35;;;;;;;9.23;5.30;;;22.20;46.30;;;;;;4812383;29;20499;-91
2021/09/05 19:10:01;;;;;;;8.57;4.68;;;22.10;46.60;;;;;;4816707;29;20035;-89
2021/09/05 19:12:31;;;;;;;10.70;4.93;;;21.90;46.90;;;;;;4815727;29;20026;-90
2021/09/05 19:15:16;;;;;;;10.60;5.63;;;21.90;47.40;;;;;;4830109;29;20026;-91
2021/09/05 19:17:42;;;;;;;9.77;5.35;;;21.70;47.80;;;;;;4799691;29;20046;-92
2021/09/05 19:20:10;;;;;;;11.23;5.82;;;21.50;47.70;;;;;;4800445;29;20568;-91
2021/09/05 19:22:37;;;;;;;10.20;5.88;;;21.50;48.10;;;;;;4816704;29;20050;-91
2021/09/05 19:25:04;;;;;;;9.25;5.25;;;21.40;48.30;;;;;;4816424;29;20029;-91
2021/09/05 19:27:35;;;;;;;10.82;5.95;;;21.30;48.60;;;;;;4781703;29;20047;-89
2021/09/05 19:30:07;;;;;;;10.10;5.82;;;21.20;48.90;;;;;;4797237;29;20091;-93
2021/09/05 19:32:36;;;;;;;12.18;6.50;;;21.10;49.30;;;;;;4790309;29;20388;-89
2021/09/05 19:35:10;;;;;;;9.60;5.25;;;21.00;49.80;;;;;;4791667;29;20023;-87
2021/09/05 19:37:39;;;;;;;9.95;5.90;;;21.00;50.00;;;;;;4794152;29;20041;-89
2021/09/05 19:40:08;;;;;;;10.48;5.80;;;20.90;50.00;;;;;;4798379;29;20039;-86
2021/09/05 19:42:36;;;;;;;9.82;5.63;;;20.80;50.10;;;;;;4793757;29;20552;-87
2021/09/05 19:45:02;;;;;;;10.52;6.13;;;20.70;50.20;;;;;;4794757;29;20053;-87
2021/09/05 19:47:28;;;;;;;10.85;6.25;;;20.60;51.20;;;;;;4798747;29;20087;-89
2021/09/05 19:49:55;;;;;;;10.55;6.03;;;20.50;50.80;;;;;;4797088;29;20094;-88
2021/09/05 19:52:21;;;;;;;11.15;6.55;;;20.40;51.00;;;;;;4796945;29;20035;-87
2021/09/05 19:54:48;;;;;;;10.15;5.90;;;20.30;51.30;;;;;;4801810;29;20027;-87
2021/09/05 19:57:15;;;;;;;13.25;6.82;;;20.20;51.50;;;;;;4806039;29;20038;-86
2021/09/05 19:59:40;;;;;;;12.50;6.95;;;20.10;51.80;;;;;;4797279;29;20034;-87
2021/09/05 20:02:07;;;;;;;11.60;6.82;;;20.10;52.00;;;;;;4796362;29;20100;-87
2021/09/05 20:04:36;;;;;;;11.50;6.88;;;19.90;52.30;;;;;;4800283;29;20035;-88
2021/09/05 20:07:06;;;;;;;12.88;7.25;;;19.80;52.50;;;;;;4801216;29;20031;-86
2021/09/05 20:09:36;;;;;;;11.95;7.32;;;19.80;52.70;;;;;;4805037;29;20034;-88
2021/09/05 20:12:05;;;;;;;13.73;7.53;;;19.70;52.90;;;;;;4797915;29;20087;-87
2021/09/05 20:14:33;;;;;;;13.05;7.38;;;19.60;53.20;;;;;;4817550;29;20031;-87
2021/09/05 20:17:00;;;;;;;11.52;7.07;;;19.50;53.30;;;;;;4796907;29;20102;-88
2021/09/05 20:19:27;;;;;;;12.52;6.80;;;19.40;53.60;;;;;;4780926;29;20098;-88
2021/09/05 20:21:55;;;;;;;10.68;6.75;;;19.30;53.70;;;;;;4797742;29;20128;-86
2021/09/05 20:24:21;;;;;;;11.35;7.30;;;19.20;54.10;;;;;;4807615;29;20035;-86
2021/09/05 20:26:51;;;;;;;11.85;7.15;;;19.10;54.30;;;;;;4818285;29;20078;-86
2021/09/05 20:29:19;;;;;;;11.57;7.40;;;19.00;54.60;;;;;;4813896;29;20444;-87
2021/09/05 20:31:45;;;;;;;12.93;7.03;;;18.90;54.80;;;;;;4812809;29;20034;-87
2021/09/05 20:34:17;;;;;;;11.05;6.80;;;18.90;55.00;;;;;;4812128;29;20030;-88
2021/09/05 20:36:52;;;;;;;11.77;6.70;;;18.80;55.20;;;;;;4815700;29;20057;-88
2021/09/05 20:39:17;;;;;;;;;;;18.70;55.50;;;;;;4816356;29;20501;-87
2021/09/05 20:41:46;;;;;;;12.18;6.70;;;18.60;55.20;;;;;;4812181;29;20007;-90
2021/09/05 20:44:12;;;;;;;11.60;6.78;;;18.50;55.40;;;;;;4812044;29;20038;-89
2021/09/05 20:46:39;;;;;;;12.10;6.25;;;18.50;55.80;;;;;;4812479;29;20034;-89
2021/09/05 20:49:11;;;;;;;10.98;5.85;;;18.50;56.10;;;;;;4814323;29;20121;-89
2021/09/05 20:52:01;;;;;;;10.65;6.47;;;18.40;56.30;;;;;;4813904;29;20031;-89
